PWSweather.com
Personal Weather Stations
Station Observations
KPAAUBUR15
Lake Wynonah, Auburn, PA 17922

Lake WynonahAuburn, PA 17922

Lat: 40.582723, Lon: -76.193106

Elevation: 724

Station Type: Davis Vantage Pro2

http://WynonahWeather.com

High Low Average
Temperature 32.0°F0.0°C 21.5°F-5.8°C 26.3°F-3.2°C
Dew Point 19.9°F-6.7°C 12.9°F-10.6°C 16.0°F-8.9°C
Winds 9.2 mph 14.8 kmh Calm Calm 2.0 mph WNW3.2 kmh WNW
Wind Gusts 13.8 mph22.2 kmh -- 4.0 mph6.4 kmh
Humidity 77% 48% 65%
Pressure 30.60 in1036.2 mb 30.36 in1028.1 mb -
Precipitation 0.00 in0.0 mm - -
Hour Temp Dew Point Humidity Winds Wind Gusts Pressure Precip Precip Rate Daily Precip Total
12:00 AM 28.7°F-1.8°C 20.1°F-6.6°C 70% 3.5 mph NNW5.6 kmh NNW 10.4 mph16.7 kmh 30.34 in1027.4 mb - 0.00 in0.0 mm 0.07 in1.8 mm
12:05 AM 28.5°F-1.9°C 20.0°F-6.7°C 70% 6.9 mph NW11.1 kmh NW 10.4 mph16.7 kmh 30.34 in1027.4 mb - 0.00 in0.0 mm 0.07 in1.8 mm
12:10 AM 28.4°F-2.0°C 20.2°F-6.6°C 71% 4.6 mph WNW7.4 kmh WNW 6.9 mph11.1 kmh 30.35 in1027.8 mb - 0.00 in0.0 mm 0.07 in1.8 mm
12:15 AM 28.3°F-2.1°C 20.1°F-6.6°C 71% 4.6 mph NW7.4 kmh NW 12.7 mph20.4 kmh 30.35 in1027.8 mb - 0.00 in0.0 mm 0.07 in1.8 mm
12:20 AM 28.2°F-2.1°C 20.0°F-6.7°C 71% 2.3 mph NW3.7 kmh NW 5.8 mph9.3 kmh 30.35 in1027.8 mb - 0.00 in0.0 mm 0.07 in1.8 mm
12:25 AM 28.1°F-2.2°C 19.9°F-6.7°C 71% 2.3 mph NW3.7 kmh NW 5.8 mph9.3 kmh 30.35 in1027.8 mb - 0.00 in0.0 mm 0.07 in1.8 mm
12:30 AM 28.1°F-2.2°C 20.2°F-6.6°C 72% 6.9 mph N11.1 kmh N 12.7 mph20.4 kmh 30.35 in1027.8 mb - 0.00 in0.0 mm 0.07 in1.8 mm
12:35 AM 28.1°F-2.2°C 19.9°F-6.7°C 71% 8.1 mph N13.0 kmh N 10.4 mph16.7 kmh 30.36 in1028.1 mb - 0.00 in0.0 mm 0.07 in1.8 mm
12:40 AM 28.1°F-2.2°C 20.2°F-6.6°C 72% 2.3 mph NW3.7 kmh NW 4.6 mph7.4 kmh 30.36 in1028.1 mb - 0.00 in0.0 mm 0.07 in1.8 mm
12:45 AM 28.0°F-2.2°C 20.1°F-6.6°C 72% 1.2 mph NNW1.9 kmh NNW 4.6 mph7.4 kmh 30.36 in1028.1 mb - 0.00 in0.0 mm 0.07 in1.8 mm
12:50 AM 27.9°F-2.3°C 20.4°F-6.4°C 73% 1.2 mph NW1.9 kmh NW 3.5 mph5.6 kmh 30.36 in1028.1 mb - 0.00 in0.0 mm 0.07 in1.8 mm
12:55 AM 27.8°F-2.3°C 19.9°F-6.7°C 72% 2.3 mph N3.7 kmh N 4.6 mph7.4 kmh 30.36 in1028.1 mb - 0.00 in0.0 mm 0.07 in1.8 mm
01:00 AM 27.7°F-2.4°C 19.9°F-6.7°C 72% 1.2 mph WNW1.9 kmh WNW 9.2 mph14.8 kmh 30.36 in1028.1 mb - 0.00 in0.0 mm 0.00 in0.0 mm
01:05 AM 27.6°F-2.4°C 19.8°F-6.8°C 72% 6.9 mph NW11.1 kmh NW 9.2 mph14.8 kmh 30.36 in1028.1 mb - 0.00 in0.0 mm 0.00 in0.0 mm
01:10 AM 27.5°F-2.5°C 19.7°F-6.8°C 72% 4.6 mph NNW7.4 kmh NNW 4.6 mph7.4 kmh 30.36 in1028.1 mb - 0.00 in0.0 mm 0.00 in0.0 mm
01:15 AM 27.4°F-2.6°C 19.6°F-6.9°C 72% 2.3 mph NNW3.7 kmh NNW 4.6 mph7.4 kmh 30.37 in1028.4 mb - 0.00 in0.0 mm 0.00 in0.0 mm
01:20 AM 27.3°F-2.6°C 19.5°F-6.9°C 72% Calm Calm 3.5 mph5.6 kmh 30.37 in1028.4 mb - 0.00 in0.0 mm 0.00 in0.0 mm
01:25 AM 27.2°F-2.7°C 19.0°F-7.2°C 71% 5.8 mph N9.3 kmh N 9.2 mph14.8 kmh 30.38 in1028.8 mb - 0.00 in0.0 mm 0.00 in0.0 mm
01:30 AM 27.1°F-2.7°C 19.3°F-7.1°C 72% Calm Calm -- 30.38 in1028.8 mb - 0.00 in0.0 mm 0.00 in0.0 mm
01:35 AM 27.0°F-2.8°C 19.2°F-7.1°C 72% 2.3 mph NW3.7 kmh NW 2.3 mph3.7 kmh 30.38 in1028.8 mb - 0.00 in0.0 mm 0.00 in0.0 mm
01:40 AM 26.9°F-2.8°C 19.1°F-7.2°C 72% Calm Calm -- 30.39 in1029.1 mb - 0.00 in0.0 mm 0.00 in0.0 mm
01:45 AM 26.7°F-2.9°C 18.9°F-7.3°C 72% 1.2 mph SW1.9 kmh SW 3.5 mph5.6 kmh 30.39 in1029.1 mb - 0.00 in0.0 mm 0.00 in0.0 mm
01:50 AM 26.7°F-2.9°C 18.9°F-7.3°C 72% 3.5 mph NW5.6 kmh NW 5.8 mph9.3 kmh 30.39 in1029.1 mb - 0.00 in0.0 mm 0.00 in0.0 mm
01:55 AM 26.7°F-2.9°C 18.9°F-7.3°C 72% 1.2 mph NW1.9 kmh NW 3.5 mph5.6 kmh 30.40 in1029.5 mb - 0.00 in0.0 mm 0.00 in0.0 mm
02:00 AM 26.6°F-3.0°C 18.8°F-7.3°C 72% Calm Calm -- 30.40 in1029.5 mb - 0.00 in0.0 mm 0.00 in0.0 mm
02:05 AM 26.6°F-3.0°C 19.1°F-7.2°C 73% 2.3 mph NNW3.7 kmh NNW 5.8 mph9.3 kmh 30.40 in1029.5 mb - 0.00 in0.0 mm 0.00 in0.0 mm
02:10 AM 26.6°F-3.0°C 19.1°F-7.2°C 73% 1.2 mph NNW1.9 kmh NNW 3.5 mph5.6 kmh 30.41 in1029.8 mb - 0.00 in0.0 mm 0.00 in0.0 mm
02:15 AM 26.5°F-3.1°C 19.0°F-7.2°C 73% 4.6 mph N7.4 kmh N 8.1 mph13.0 kmh 30.41 in1029.8 mb - 0.00 in0.0 mm 0.00 in0.0 mm
02:20 AM 26.5°F-3.1°C 19.0°F-7.2°C 73% 4.6 mph N7.4 kmh N 6.9 mph11.1 kmh 30.41 in1029.8 mb - 0.00 in0.0 mm 0.00 in0.0 mm
02:25 AM 26.4°F-3.1°C 18.6°F-7.4°C 72% 3.5 mph NW5.6 kmh NW 6.9 mph11.1 kmh 30.41 in1029.8 mb - 0.00 in0.0 mm 0.00 in0.0 mm
02:30 AM 26.3°F-3.2°C 18.5°F-7.5°C 72% 4.6 mph NW7.4 kmh NW 9.2 mph14.8 kmh 30.41 in1029.8 mb - 0.00 in0.0 mm 0.00 in0.0 mm
02:35 AM 26.2°F-3.2°C 18.4°F-7.6°C 72% 1.2 mph NNW1.9 kmh NNW 5.8 mph9.3 kmh 30.42 in1030.1 mb - 0.00 in0.0 mm 0.00 in0.0 mm
02:40 AM 26.2°F-3.2°C 18.4°F-7.6°C 72% 5.8 mph NW9.3 kmh NW 11.5 mph18.5 kmh 30.43 in1030.5 mb - 0.00 in0.0 mm 0.00 in0.0 mm
02:45 AM 26.1°F-3.3°C 18.0°F-7.8°C 71% 5.8 mph NNW9.3 kmh NNW 5.8 mph9.3 kmh 30.43 in1030.5 mb - 0.00 in0.0 mm 0.00 in0.0 mm
02:50 AM 26.0°F-3.3°C 17.9°F-7.8°C 71% 2.3 mph N3.7 kmh N 3.5 mph5.6 kmh 30.43 in1030.5 mb - 0.00 in0.0 mm 0.00 in0.0 mm
02:55 AM 25.8°F-3.4°C 17.7°F-7.9°C 71% 2.3 mph NW3.7 kmh NW 4.6 mph7.4 kmh 30.44 in1030.8 mb - 0.00 in0.0 mm 0.00 in0.0 mm
03:00 AM 25.7°F-3.5°C 17.6°F-8.0°C 71% 3.5 mph N5.6 kmh N 10.4 mph16.7 kmh 30.44 in1030.8 mb - 0.00 in0.0 mm 0.00 in0.0 mm
03:05 AM 25.6°F-3.6°C 17.8°F-7.9°C 72% 2.3 mph NW3.7 kmh NW 8.1 mph13.0 kmh 30.44 in1030.8 mb - 0.00 in0.0 mm 0.00 in0.0 mm
03:10 AM 25.6°F-3.6°C 17.5°F-8.1°C 71% 6.9 mph N11.1 kmh N 6.9 mph11.1 kmh 30.45 in1031.2 mb - 0.00 in0.0 mm 0.00 in0.0 mm
03:15 AM 25.6°F-3.6°C 17.8°F-7.9°C 72% 3.5 mph N5.6 kmh N 8.1 mph13.0 kmh 30.44 in1030.8 mb - 0.00 in0.0 mm 0.00 in0.0 mm
03:20 AM 25.5°F-3.6°C 17.7°F-7.9°C 72% 2.3 mph NNW3.7 kmh NNW 3.5 mph5.6 kmh 30.45 in1031.2 mb - 0.00 in0.0 mm 0.00 in0.0 mm
03:25 AM 25.4°F-3.7°C 17.3°F-8.2°C 71% Calm Calm -- 30.46 in1031.5 mb - 0.00 in0.0 mm 0.00 in0.0 mm
03:30 AM 25.3°F-3.7°C 17.5°F-8.1°C 72% 2.3 mph NNW3.7 kmh NNW 4.6 mph7.4 kmh 30.45 in1031.2 mb - 0.00 in0.0 mm 0.00 in0.0 mm
03:35 AM 25.3°F-3.7°C 17.5°F-8.1°C 72% 1.2 mph NNW1.9 kmh NNW 3.5 mph5.6 kmh 30.45 in1031.2 mb - 0.00 in0.0 mm 0.00 in0.0 mm
03:40 AM 25.2°F-3.8°C 17.8°F-7.9°C 73% Calm Calm 3.5 mph5.6 kmh 30.45 in1031.2 mb - 0.00 in0.0 mm 0.00 in0.0 mm
03:45 AM 25.1°F-3.8°C 17.7°F-7.9°C 73% 2.3 mph NNW3.7 kmh NNW 4.6 mph7.4 kmh 30.45 in1031.2 mb - 0.00 in0.0 mm 0.00 in0.0 mm
03:50 AM 25.0°F-3.9°C 17.6°F-8.0°C 73% 1.2 mph NW1.9 kmh NW 3.5 mph5.6 kmh 30.45 in1031.2 mb - 0.00 in0.0 mm 0.00 in0.0 mm
03:55 AM 24.8°F-4.0°C 17.7°F-7.9°C 74% Calm Calm 2.3 mph3.7 kmh 30.45 in1031.2 mb - 0.00 in0.0 mm 0.00 in0.0 mm
04:00 AM 24.7°F-4.1°C 17.2°F-8.2°C 73% 1.2 mph NW1.9 kmh NW 3.5 mph5.6 kmh 30.45 in1031.2 mb - 0.00 in0.0 mm 0.00 in0.0 mm
04:05 AM 24.5°F-4.2°C 17.1°F-8.3°C 73% 2.3 mph NW3.7 kmh NW 2.3 mph3.7 kmh 30.45 in1031.2 mb - 0.00 in0.0 mm 0.00 in0.0 mm
04:10 AM 24.4°F-4.2°C 17.0°F-8.3°C 73% 1.2 mph NW1.9 kmh NW 1.2 mph1.9 kmh 30.45 in1031.2 mb - 0.00 in0.0 mm 0.00 in0.0 mm
04:15 AM 24.3°F-4.3°C 16.9°F-8.4°C 73% 4.6 mph NNW7.4 kmh NNW 6.9 mph11.1 kmh 30.45 in1031.2 mb - 0.00 in0.0 mm 0.00 in0.0 mm
04:20 AM 24.2°F-4.3°C 16.8°F-8.4°C 73% 2.3 mph NNW3.7 kmh NNW 2.3 mph3.7 kmh 30.45 in1031.2 mb - 0.00 in0.0 mm 0.00 in0.0 mm
04:25 AM 24.1°F-4.4°C 16.7°F-8.5°C 73% 3.5 mph NW5.6 kmh NW 5.8 mph9.3 kmh 30.45 in1031.2 mb - 0.00 in0.0 mm 0.00 in0.0 mm
04:30 AM 24.0°F-4.4°C 16.6°F-8.6°C 73% 3.5 mph N5.6 kmh N 4.6 mph7.4 kmh 30.45 in1031.2 mb - 0.00 in0.0 mm 0.00 in0.0 mm
04:35 AM 24.0°F-4.4°C 16.6°F-8.6°C 73% 3.5 mph NW5.6 kmh NW 5.8 mph9.3 kmh 30.45 in1031.2 mb - 0.00 in0.0 mm 0.00 in0.0 mm
04:40 AM 24.0°F-4.4°C 16.9°F-8.4°C 74% 3.5 mph NNW5.6 kmh NNW 4.6 mph7.4 kmh 30.44 in1030.8 mb - 0.00 in0.0 mm 0.00 in0.0 mm
04:45 AM 24.0°F-4.4°C 16.2°F-8.8°C 72% 5.8 mph N9.3 kmh N 9.2 mph14.8 kmh 30.44 in1030.8 mb - 0.00 in0.0 mm 0.00 in0.0 mm
04:50 AM 23.9°F-4.5°C 16.5°F-8.6°C 73% 3.5 mph N5.6 kmh N 5.8 mph9.3 kmh 30.45 in1031.2 mb - 0.00 in0.0 mm 0.00 in0.0 mm
04:55 AM 23.8°F-4.6°C 16.4°F-8.7°C 73% 2.3 mph NW3.7 kmh NW 4.6 mph7.4 kmh 30.45 in1031.2 mb - 0.00 in0.0 mm 0.00 in0.0 mm
05:00 AM 23.6°F-4.7°C 16.5°F-8.6°C 74% Calm Calm -- 30.45 in1031.2 mb - 0.00 in0.0 mm 0.00 in0.0 mm
05:05 AM 23.5°F-4.7°C 16.4°F-8.7°C 74% 1.2 mph NNW1.9 kmh NNW 2.3 mph3.7 kmh 30.45 in1031.2 mb - 0.00 in0.0 mm 0.00 in0.0 mm
05:10 AM 23.4°F-4.8°C 16.3°F-8.7°C 74% 1.2 mph NNW1.9 kmh NNW 3.5 mph5.6 kmh 30.45 in1031.2 mb - 0.00 in0.0 mm 0.00 in0.0 mm
05:15 AM 23.3°F-4.8°C 16.2°F-8.8°C 74% Calm Calm -- 30.45 in1031.2 mb - 0.00 in0.0 mm 0.00 in0.0 mm
05:20 AM 23.2°F-4.9°C 16.1°F-8.8°C 74% 1.2 mph NW1.9 kmh NW 4.6 mph7.4 kmh 30.46 in1031.5 mb - 0.00 in0.0 mm 0.00 in0.0 mm
05:25 AM 23.1°F-4.9°C 16.0°F-8.9°C 74% 1.2 mph NW1.9 kmh NW 3.5 mph5.6 kmh 30.45 in1031.2 mb - 0.00 in0.0 mm 0.00 in0.0 mm
05:30 AM 23.0°F-5.0°C 15.9°F-8.9°C 74% 2.3 mph NW3.7 kmh NW 3.5 mph5.6 kmh 30.45 in1031.2 mb - 0.00 in0.0 mm 0.00 in0.0 mm
05:35 AM 22.9°F-5.1°C 16.2°F-8.8°C 75% Calm Calm -- 30.46 in1031.5 mb - 0.00 in0.0 mm 0.00 in0.0 mm
05:40 AM 22.9°F-5.1°C 16.2°F-8.8°C 75% Calm Calm -- 30.46 in1031.5 mb - 0.00 in0.0 mm 0.00 in0.0 mm
05:45 AM 22.8°F-5.1°C 16.1°F-8.8°C 75% 1.2 mph NW1.9 kmh NW 3.5 mph5.6 kmh 30.46 in1031.5 mb - 0.00 in0.0 mm 0.00 in0.0 mm
05:50 AM 22.7°F-5.2°C 16.0°F-8.9°C 75% 1.2 mph NW1.9 kmh NW 4.6 mph7.4 kmh 30.46 in1031.5 mb - 0.00 in0.0 mm 0.00 in0.0 mm
05:55 AM 22.7°F-5.2°C 16.0°F-8.9°C 75% Calm Calm 1.2 mph1.9 kmh 30.46 in1031.5 mb - 0.00 in0.0 mm 0.00 in0.0 mm
06:00 AM 22.6°F-5.2°C 15.9°F-8.9°C 75% Calm Calm 1.2 mph1.9 kmh 30.47 in1031.8 mb - 0.00 in0.0 mm 0.00 in0.0 mm
06:05 AM 22.6°F-5.2°C 15.9°F-8.9°C 75% 1.2 mph NW1.9 kmh NW 2.3 mph3.7 kmh 30.48 in1032.2 mb - 0.00 in0.0 mm 0.00 in0.0 mm
06:10 AM 22.6°F-5.2°C 15.9°F-8.9°C 75% Calm Calm -- 30.48 in1032.2 mb - 0.00 in0.0 mm 0.00 in0.0 mm
06:15 AM 22.5°F-5.3°C 16.1°F-8.8°C 76% Calm Calm -- 30.48 in1032.2 mb - 0.00 in0.0 mm 0.00 in0.0 mm
06:20 AM 22.4°F-5.3°C 16.0°F-8.9°C 76% Calm Calm -- 30.48 in1032.2 mb - 0.00 in0.0 mm 0.00 in0.0 mm
06:25 AM 22.3°F-5.4°C 15.9°F-8.9°C 76% 1.2 mph NW1.9 kmh NW 1.2 mph1.9 kmh 30.48 in1032.2 mb - 0.00 in0.0 mm 0.00 in0.0 mm
06:30 AM 22.2°F-5.4°C 15.8°F-9.0°C 76% 2.3 mph NW3.7 kmh NW 4.6 mph7.4 kmh 30.48 in1032.2 mb - 0.00 in0.0 mm 0.00 in0.0 mm
06:35 AM 22.2°F-5.4°C 16.1°F-8.8°C 77% 1.2 mph NW1.9 kmh NW 2.3 mph3.7 kmh 30.48 in1032.2 mb - 0.00 in0.0 mm 0.00 in0.0 mm
06:40 AM 22.2°F-5.4°C 15.8°F-9.0°C 76% Calm Calm -- 30.49 in1032.5 mb - 0.00 in0.0 mm 0.00 in0.0 mm
06:45 AM 22.2°F-5.4°C 15.8°F-9.0°C 76% Calm Calm 1.2 mph1.9 kmh 30.48 in1032.2 mb - 0.00 in0.0 mm 0.00 in0.0 mm
06:50 AM 22.1°F-5.5°C 15.7°F-9.1°C 76% Calm Calm 1.2 mph1.9 kmh 30.49 in1032.5 mb - 0.00 in0.0 mm 0.00 in0.0 mm
06:55 AM 22.2°F-5.4°C 15.8°F-9.0°C 76% 1.2 mph NW1.9 kmh NW 5.8 mph9.3 kmh 30.49 in1032.5 mb - 0.00 in0.0 mm 0.00 in0.0 mm
07:00 AM 22.2°F-5.4°C 15.8°F-9.0°C 76% 1.2 mph N1.9 kmh N 3.5 mph5.6 kmh 30.49 in1032.5 mb - 0.00 in0.0 mm 0.00 in0.0 mm
07:05 AM 22.2°F-5.4°C 15.5°F-9.2°C 75% 3.5 mph WNW5.6 kmh WNW 3.5 mph5.6 kmh 30.49 in1032.5 mb - 0.00 in0.0 mm 0.00 in0.0 mm
07:10 AM 22.2°F-5.4°C 15.5°F-9.2°C 75% Calm Calm 4.6 mph7.4 kmh 30.49 in1032.5 mb - 0.00 in0.0 mm 0.00 in0.0 mm
07:15 AM 22.2°F-5.4°C 15.5°F-9.2°C 75% Calm Calm 1.2 mph1.9 kmh 30.49 in1032.5 mb - 0.00 in0.0 mm 0.00 in0.0 mm
07:20 AM 22.1°F-5.5°C 15.4°F-9.2°C 75% Calm Calm -- 30.50 in1032.8 mb - 0.00 in0.0 mm 0.00 in0.0 mm
07:25 AM 22.1°F-5.5°C 15.4°F-9.2°C 75% 2.3 mph NW3.7 kmh NW 3.5 mph5.6 kmh 30.50 in1032.8 mb - 0.00 in0.0 mm 0.00 in0.0 mm
07:30 AM 22.1°F-5.5°C 15.3°F-9.3°C 75% Calm Calm -- 30.50 in1032.8 mb - 0.00 in0.0 mm 0.00 in0.0 mm
07:35 AM 21.9°F-5.6°C 15.2°F-9.3°C 75% Calm Calm -- 30.51 in1033.2 mb - 0.00 in0.0 mm 0.00 in0.0 mm
07:40 AM 21.7°F-5.7°C 15.3°F-9.3°C 76% Calm Calm 3.5 mph5.6 kmh 30.51 in1033.2 mb - 0.00 in0.0 mm 0.00 in0.0 mm
07:45 AM 21.6°F-5.8°C 14.9°F-9.5°C 75% Calm Calm -- 30.51 in1033.2 mb - 0.00 in0.0 mm 0.00 in0.0 mm
07:50 AM 21.5°F-5.8°C 14.8°F-9.6°C 75% Calm Calm 2.3 mph3.7 kmh 30.51 in1033.2 mb - 0.00 in0.0 mm 0.00 in0.0 mm
07:55 AM 21.5°F-5.8°C 14.8°F-9.6°C 75% Calm Calm -- 30.51 in1033.2 mb - 0.00 in0.0 mm 0.00 in0.0 mm
08:00 AM 21.5°F-5.8°C 15.1°F-9.4°C 76% Calm Calm 3.5 mph5.6 kmh 30.52 in1033.5 mb - 0.00 in0.0 mm 0.00 in0.0 mm
08:05 AM 21.5°F-5.8°C 15.1°F-9.4°C 76% 1.2 mph NW1.9 kmh NW 4.6 mph7.4 kmh 30.52 in1033.5 mb - 0.00 in0.0 mm 0.00 in0.0 mm
08:10 AM 21.5°F-5.8°C 15.1°F-9.4°C 76% 2.3 mph NW3.7 kmh NW 3.5 mph5.6 kmh 30.53 in1033.9 mb - 0.00 in0.0 mm 0.00 in0.0 mm
08:15 AM 21.6°F-5.8°C 15.2°F-9.3°C 76% 3.5 mph NW5.6 kmh NW 6.9 mph11.1 kmh 30.53 in1033.9 mb - 0.00 in0.0 mm 0.00 in0.0 mm
08:20 AM 21.7°F-5.7°C 15.3°F-9.3°C 76% Calm Calm -- 30.53 in1033.9 mb - 0.00 in0.0 mm 0.00 in0.0 mm
08:25 AM 21.8°F-5.7°C 15.4°F-9.2°C 76% 2.3 mph NW3.7 kmh NW 5.8 mph9.3 kmh 30.54 in1034.2 mb - 0.00 in0.0 mm 0.00 in0.0 mm
08:30 AM 21.8°F-5.7°C 15.4°F-9.2°C 76% Calm Calm -- 30.54 in1034.2 mb - 0.00 in0.0 mm 0.00 in0.0 mm
08:35 AM 21.9°F-5.6°C 15.2°F-9.3°C 75% 1.2 mph NW1.9 kmh NW 8.1 mph13.0 kmh 30.54 in1034.2 mb - 0.00 in0.0 mm 0.00 in0.0 mm
08:40 AM 22.0°F-5.6°C 15.3°F-9.3°C 75% 4.6 mph NW7.4 kmh NW 6.9 mph11.1 kmh 30.55 in1034.5 mb - 0.00 in0.0 mm 0.00 in0.0 mm
08:45 AM 22.0°F-5.6°C 15.0°F-9.4°C 74% 4.6 mph NW7.4 kmh NW 6.9 mph11.1 kmh 30.55 in1034.5 mb - 0.00 in0.0 mm 0.00 in0.0 mm
08:50 AM 22.1°F-5.5°C 15.1°F-9.4°C 74% 3.5 mph NW5.6 kmh NW 5.8 mph9.3 kmh 30.55 in1034.5 mb - 0.00 in0.0 mm 0.00 in0.0 mm
08:55 AM 22.2°F-5.4°C 15.2°F-9.3°C 74% 1.2 mph NW1.9 kmh NW 4.6 mph7.4 kmh 30.56 in1034.9 mb - 0.00 in0.0 mm 0.00 in0.0 mm
09:00 AM 22.3°F-5.4°C 15.3°F-9.3°C 74% 1.2 mph NW1.9 kmh NW 3.5 mph5.6 kmh 30.56 in1034.9 mb - 0.00 in0.0 mm 0.00 in0.0 mm
09:05 AM 22.4°F-5.3°C 15.4°F-9.2°C 74% 1.2 mph NW1.9 kmh NW 3.5 mph5.6 kmh 30.56 in1034.9 mb - 0.00 in0.0 mm 0.00 in0.0 mm
09:10 AM 22.5°F-5.3°C 15.1°F-9.4°C 73% 2.3 mph WNW3.7 kmh WNW 5.8 mph9.3 kmh 30.56 in1034.9 mb - 0.00 in0.0 mm 0.00 in0.0 mm
09:15 AM 22.7°F-5.2°C 15.3°F-9.3°C 73% 5.8 mph NW9.3 kmh NW 5.8 mph9.3 kmh 30.57 in1035.2 mb - 0.00 in0.0 mm 0.00 in0.0 mm
09:20 AM 22.9°F-5.1°C 15.5°F-9.2°C 73% 3.5 mph N5.6 kmh N 4.6 mph7.4 kmh 30.57 in1035.2 mb - 0.00 in0.0 mm 0.00 in0.0 mm
09:25 AM 23.1°F-4.9°C 15.7°F-9.1°C 73% Calm Calm -- 30.58 in1035.6 mb - 0.00 in0.0 mm 0.00 in0.0 mm
09:30 AM 23.1°F-4.9°C 15.4°F-9.2°C 72% 2.3 mph NW3.7 kmh NW 3.5 mph5.6 kmh 30.57 in1035.2 mb - 0.00 in0.0 mm 0.00 in0.0 mm
09:35 AM 23.3°F-4.8°C 15.6°F-9.1°C 72% 3.5 mph NW5.6 kmh NW 4.6 mph7.4 kmh 30.57 in1035.2 mb - 0.00 in0.0 mm 0.00 in0.0 mm
09:40 AM 23.3°F-4.8°C 15.6°F-9.1°C 72% 6.9 mph N11.1 kmh N 10.4 mph16.7 kmh 30.57 in1035.2 mb - 0.00 in0.0 mm 0.00 in0.0 mm
09:45 AM 23.3°F-4.8°C 15.3°F-9.3°C 71% 9.2 mph N14.8 kmh N 13.8 mph22.2 kmh 30.57 in1035.2 mb - 0.00 in0.0 mm 0.00 in0.0 mm
09:50 AM 23.3°F-4.8°C 15.3°F-9.3°C 71% 5.8 mph N9.3 kmh N 11.5 mph18.5 kmh 30.57 in1035.2 mb - 0.00 in0.0 mm 0.00 in0.0 mm
09:55 AM 23.3°F-4.8°C 15.3°F-9.3°C 71% 5.8 mph N9.3 kmh N 9.2 mph14.8 kmh 30.58 in1035.6 mb - 0.00 in0.0 mm 0.00 in0.0 mm
10:00 AM 23.4°F-4.8°C 15.1°F-9.4°C 70% 6.9 mph NNW11.1 kmh NNW 8.1 mph13.0 kmh 30.58 in1035.6 mb - 0.00 in0.0 mm 0.00 in0.0 mm
10:05 AM 23.6°F-4.7°C 15.2°F-9.3°C 70% 2.3 mph NW3.7 kmh NW 4.6 mph7.4 kmh 30.57 in1035.2 mb - 0.00 in0.0 mm 0.00 in0.0 mm
10:10 AM 23.9°F-4.5°C 15.5°F-9.2°C 70% 4.6 mph NW7.4 kmh NW 8.1 mph13.0 kmh 30.58 in1035.6 mb - 0.00 in0.0 mm 0.00 in0.0 mm
10:15 AM 24.1°F-4.4°C 15.1°F-9.4°C 68% 3.5 mph N5.6 kmh N 5.8 mph9.3 kmh 30.58 in1035.6 mb - 0.00 in0.0 mm 0.00 in0.0 mm
10:20 AM 24.4°F-4.2°C 15.3°F-9.3°C 68% 2.3 mph NW3.7 kmh NW 5.8 mph9.3 kmh 30.58 in1035.6 mb - 0.00 in0.0 mm 0.00 in0.0 mm
10:25 AM 24.4°F-4.2°C 15.0°F-9.4°C 67% 6.9 mph N11.1 kmh N 11.5 mph18.5 kmh 30.58 in1035.6 mb - 0.00 in0.0 mm 0.00 in0.0 mm
10:30 AM 24.5°F-4.2°C 15.1°F-9.4°C 67% 8.1 mph N13.0 kmh N 12.7 mph20.4 kmh 30.59 in1035.9 mb - 0.00 in0.0 mm 0.00 in0.0 mm
10:35 AM 24.6°F-4.1°C 14.8°F-9.6°C 66% 6.9 mph NNW11.1 kmh NNW 9.2 mph14.8 kmh 30.59 in1035.9 mb - 0.00 in0.0 mm 0.00 in0.0 mm
10:40 AM 24.8°F-4.0°C 14.7°F-9.6°C 65% 6.9 mph N11.1 kmh N 13.8 mph22.2 kmh 30.59 in1035.9 mb - 0.00 in0.0 mm 0.00 in0.0 mm
10:45 AM 24.9°F-3.9°C 14.8°F-9.6°C 65% 4.6 mph NW7.4 kmh NW 9.2 mph14.8 kmh 30.59 in1035.9 mb - 0.00 in0.0 mm 0.00 in0.0 mm
10:50 AM 25.1°F-3.8°C 15.7°F-9.1°C 67% 3.5 mph N5.6 kmh N 5.8 mph9.3 kmh 30.59 in1035.9 mb - 0.00 in0.0 mm 0.00 in0.0 mm
10:55 AM 25.5°F-3.6°C 15.7°F-9.1°C 66% 6.9 mph NW11.1 kmh NW 11.5 mph18.5 kmh 30.59 in1035.9 mb - 0.00 in0.0 mm 0.00 in0.0 mm
11:00 AM 25.4°F-3.7°C 15.6°F-9.1°C 66% 3.5 mph NW5.6 kmh NW 10.4 mph16.7 kmh 30.59 in1035.9 mb - 0.00 in0.0 mm 0.00 in0.0 mm
11:05 AM 25.4°F-3.7°C 15.2°F-9.3°C 65% 3.5 mph W5.6 kmh W 4.6 mph7.4 kmh 30.59 in1035.9 mb - 0.00 in0.0 mm 0.00 in0.0 mm
11:10 AM 25.3°F-3.7°C 14.5°F-9.7°C 63% 4.6 mph NW7.4 kmh NW 6.9 mph11.1 kmh 30.59 in1035.9 mb - 0.00 in0.0 mm 0.00 in0.0 mm
11:15 AM 25.4°F-3.7°C 14.9°F-9.5°C 64% 4.6 mph NW7.4 kmh NW 4.6 mph7.4 kmh 30.59 in1035.9 mb - 0.00 in0.0 mm 0.00 in0.0 mm
11:20 AM 25.5°F-3.6°C 15.0°F-9.4°C 64% 3.5 mph NW5.6 kmh NW 6.9 mph11.1 kmh 30.59 in1035.9 mb - 0.00 in0.0 mm 0.00 in0.0 mm
11:25 AM 25.6°F-3.6°C 15.1°F-9.4°C 64% 4.6 mph NW7.4 kmh NW 8.1 mph13.0 kmh 30.60 in1036.2 mb - 0.00 in0.0 mm 0.00 in0.0 mm
11:30 AM 25.6°F-3.6°C 15.1°F-9.4°C 64% 5.8 mph NNW9.3 kmh NNW 9.2 mph14.8 kmh 30.60 in1036.2 mb - 0.00 in0.0 mm 0.00 in0.0 mm
11:35 AM 25.7°F-3.5°C 15.2°F-9.3°C 64% 4.6 mph NW7.4 kmh NW 6.9 mph11.1 kmh 30.60 in1036.2 mb - 0.00 in0.0 mm 0.00 in0.0 mm
11:40 AM 25.8°F-3.4°C 15.3°F-9.3°C 64% 3.5 mph NW5.6 kmh NW 6.9 mph11.1 kmh 30.60 in1036.2 mb - 0.00 in0.0 mm 0.00 in0.0 mm
11:45 AM 26.0°F-3.3°C 14.7°F-9.6°C 62% 5.8 mph NW9.3 kmh NW 10.4 mph16.7 kmh 30.60 in1036.2 mb - 0.00 in0.0 mm 0.00 in0.0 mm
11:50 AM 25.9°F-3.4°C 14.3°F-9.8°C 61% 4.6 mph NW7.4 kmh NW 6.9 mph11.1 kmh 30.60 in1036.2 mb - 0.00 in0.0 mm 0.00 in0.0 mm
11:55 AM 26.1°F-3.3°C 15.2°F-9.3°C 63% 2.3 mph WNW3.7 kmh WNW 8.1 mph13.0 kmh 30.60 in1036.2 mb - 0.00 in0.0 mm 0.00 in0.0 mm
12:00 PM 26.2°F-3.2°C 14.6°F-9.7°C 61% 2.3 mph WNW3.7 kmh WNW 8.1 mph13.0 kmh 30.60 in1036.2 mb - 0.00 in0.0 mm 0.00 in0.0 mm
12:05 PM 26.2°F-3.2°C 14.6°F-9.7°C 61% 5.8 mph NW9.3 kmh NW 5.8 mph9.3 kmh 30.60 in1036.2 mb - 0.00 in0.0 mm 0.00 in0.0 mm
12:10 PM 26.3°F-3.2°C 14.7°F-9.6°C 61% 1.2 mph N1.9 kmh N 3.5 mph5.6 kmh 30.60 in1036.2 mb - 0.00 in0.0 mm 0.00 in0.0 mm
12:15 PM 26.6°F-3.0°C 14.6°F-9.7°C 60% 4.6 mph NW7.4 kmh NW 6.9 mph11.1 kmh 30.60 in1036.2 mb - 0.00 in0.0 mm 0.00 in0.0 mm
12:20 PM 26.7°F-2.9°C 14.3°F-9.8°C 59% 2.3 mph N3.7 kmh N 2.3 mph3.7 kmh 30.60 in1036.2 mb - 0.00 in0.0 mm 0.00 in0.0 mm
12:25 PM 26.9°F-2.8°C 14.4°F-9.8°C 59% Calm Calm -- 30.60 in1036.2 mb - 0.00 in0.0 mm 0.00 in0.0 mm
12:30 PM 27.3°F-2.6°C 15.3°F-9.3°C 60% Calm Calm 3.5 mph5.6 kmh 30.60 in1036.2 mb - 0.00 in0.0 mm 0.00 in0.0 mm
12:35 PM 27.5°F-2.5°C 15.1°F-9.4°C 59% 4.6 mph WNW7.4 kmh WNW 6.9 mph11.1 kmh 30.60 in1036.2 mb - 0.00 in0.0 mm 0.00 in0.0 mm
12:40 PM 27.4°F-2.6°C 15.0°F-9.4°C 59% 2.3 mph NW3.7 kmh NW 5.8 mph9.3 kmh 30.60 in1036.2 mb - 0.00 in0.0 mm 0.00 in0.0 mm
12:45 PM 27.5°F-2.5°C 14.2°F-9.9°C 57% 2.3 mph NW3.7 kmh NW 5.8 mph9.3 kmh 30.60 in1036.2 mb - 0.00 in0.0 mm 0.00 in0.0 mm
12:50 PM 27.9°F-2.3°C 14.2°F-9.9°C 56% 2.3 mph NW3.7 kmh NW 5.8 mph9.3 kmh 30.60 in1036.2 mb - 0.00 in0.0 mm 0.00 in0.0 mm
12:55 PM 28.0°F-2.2°C 13.1°F-10.5°C 53% 5.8 mph N9.3 kmh N 8.1 mph13.0 kmh 30.60 in1036.2 mb - 0.00 in0.0 mm 0.00 in0.0 mm
01:00 PM 27.8°F-2.3°C 12.9°F-10.6°C 53% 5.8 mph NW9.3 kmh NW 6.9 mph11.1 kmh 30.60 in1036.2 mb - 0.00 in0.0 mm 0.00 in0.0 mm
01:05 PM 27.8°F-2.3°C 14.1°F-9.9°C 56% 4.6 mph WSW7.4 kmh WSW 4.6 mph7.4 kmh 30.60 in1036.2 mb - 0.00 in0.0 mm 0.00 in0.0 mm
01:10 PM 27.8°F-2.3°C 14.5°F-9.7°C 57% 2.3 mph N3.7 kmh N 2.3 mph3.7 kmh 30.60 in1036.2 mb - 0.00 in0.0 mm 0.00 in0.0 mm
01:15 PM 28.0°F-2.2°C 14.7°F-9.6°C 57% 4.6 mph NNW7.4 kmh NNW 5.8 mph9.3 kmh 30.60 in1036.2 mb - 0.00 in0.0 mm 0.00 in0.0 mm
01:20 PM 28.1°F-2.2°C 14.8°F-9.6°C 57% 3.5 mph WNW5.6 kmh WNW 5.8 mph9.3 kmh 30.60 in1036.2 mb - 0.00 in0.0 mm 0.00 in0.0 mm
01:25 PM 28.3°F-2.1°C 15.4°F-9.2°C 58% 2.3 mph NNW3.7 kmh NNW 4.6 mph7.4 kmh 30.59 in1035.9 mb - 0.00 in0.0 mm 0.00 in0.0 mm
01:30 PM 28.4°F-2.0°C 15.1°F-9.4°C 57% 4.6 mph N7.4 kmh N 4.6 mph7.4 kmh 30.59 in1035.9 mb - 0.00 in0.0 mm 0.00 in0.0 mm
01:35 PM 28.7°F-1.8°C 14.5°F-9.7°C 55% 6.9 mph N11.1 kmh N 13.8 mph22.2 kmh 30.59 in1035.9 mb - 0.00 in0.0 mm 0.00 in0.0 mm
01:40 PM 28.8°F-1.8°C 14.6°F-9.7°C 55% 8.1 mph NW13.0 kmh NW 10.4 mph16.7 kmh 30.59 in1035.9 mb - 0.00 in0.0 mm 0.00 in0.0 mm
01:45 PM 29.0°F-1.7°C 14.8°F-9.6°C 55% 5.8 mph NNW9.3 kmh NNW 10.4 mph16.7 kmh 30.59 in1035.9 mb - 0.00 in0.0 mm 0.00 in0.0 mm
01:50 PM 29.2°F-1.6°C 13.7°F-10.2°C 52% 5.8 mph NW9.3 kmh NW 6.9 mph11.1 kmh 30.58 in1035.6 mb - 0.00 in0.0 mm 0.00 in0.0 mm
01:55 PM 29.2°F-1.6°C 14.2°F-9.9°C 53% 2.3 mph NW3.7 kmh NW 3.5 mph5.6 kmh 30.58 in1035.6 mb - 0.00 in0.0 mm 0.00 in0.0 mm
02:00 PM 29.5°F-1.4°C 14.0°F-10.0°C 52% 4.6 mph NNW7.4 kmh NNW 12.7 mph20.4 kmh 30.58 in1035.6 mb - 0.00 in0.0 mm 0.00 in0.0 mm
02:05 PM 29.4°F-1.4°C 14.8°F-9.6°C 54% 5.8 mph NW9.3 kmh NW 8.1 mph13.0 kmh 30.57 in1035.2 mb - 0.00 in0.0 mm 0.00 in0.0 mm
02:10 PM 29.6°F-1.3°C 14.5°F-9.7°C 53% 4.6 mph N7.4 kmh N 8.1 mph13.0 kmh 30.57 in1035.2 mb - 0.00 in0.0 mm 0.00 in0.0 mm
02:15 PM 29.6°F-1.3°C 14.1°F-9.9°C 52% 6.9 mph NNW11.1 kmh NNW 10.4 mph16.7 kmh 30.57 in1035.2 mb - 0.00 in0.0 mm 0.00 in0.0 mm
02:20 PM 29.6°F-1.3°C 14.1°F-9.9°C 52% 4.6 mph N7.4 kmh N 8.1 mph13.0 kmh 30.57 in1035.2 mb - 0.00 in0.0 mm 0.00 in0.0 mm
02:25 PM 29.7°F-1.3°C 15.5°F-9.2°C 55% 4.6 mph NW7.4 kmh NW 9.2 mph14.8 kmh 30.56 in1034.9 mb - 0.00 in0.0 mm 0.00 in0.0 mm
02:30 PM 29.8°F-1.2°C 15.2°F-9.3°C 54% 1.2 mph NNW1.9 kmh NNW 5.8 mph9.3 kmh 30.56 in1034.9 mb - 0.00 in0.0 mm 0.00 in0.0 mm
02:35 PM 29.9°F-1.2°C 15.3°F-9.3°C 54% 6.9 mph W11.1 kmh W 6.9 mph11.1 kmh 30.56 in1034.9 mb - 0.00 in0.0 mm 0.00 in0.0 mm
02:40 PM 30.1°F-1.1°C 15.0°F-9.4°C 53% 2.3 mph NW3.7 kmh NW 3.5 mph5.6 kmh 30.56 in1034.9 mb - 0.00 in0.0 mm 0.00 in0.0 mm
02:45 PM 30.1°F-1.1°C 15.0°F-9.4°C 53% 4.6 mph NW7.4 kmh NW 8.1 mph13.0 kmh 30.56 in1034.9 mb - 0.00 in0.0 mm 0.00 in0.0 mm
02:50 PM 30.1°F-1.1°C 14.6°F-9.7°C 52% 6.9 mph N11.1 kmh N 9.2 mph14.8 kmh 30.56 in1034.9 mb - 0.00 in0.0 mm 0.00 in0.0 mm
02:55 PM 30.3°F-0.9°C 16.0°F-8.9°C 55% 5.8 mph NW9.3 kmh NW 8.1 mph13.0 kmh 30.56 in1034.9 mb - 0.00 in0.0 mm 0.00 in0.0 mm
03:00 PM 30.5°F-0.8°C 14.5°F-9.7°C 51% 4.6 mph NW7.4 kmh NW 9.2 mph14.8 kmh 30.56 in1034.9 mb - 0.00 in0.0 mm 0.00 in0.0 mm
03:05 PM 30.7°F-0.7°C 16.0°F-8.9°C 54% 4.6 mph NNW7.4 kmh NNW 6.9 mph11.1 kmh 30.56 in1034.9 mb - 0.00 in0.0 mm 0.00 in0.0 mm
03:10 PM 30.9°F-0.6°C 15.8°F-9.0°C 53% 4.6 mph NW7.4 kmh NW 5.8 mph9.3 kmh 30.56 in1034.9 mb - 0.00 in0.0 mm 0.00 in0.0 mm
03:15 PM 31.0°F-0.6°C 15.8°F-9.0°C 53% 3.5 mph NW5.6 kmh NW 5.8 mph9.3 kmh 30.56 in1034.9 mb - 0.00 in0.0 mm 0.00 in0.0 mm
03:20 PM 31.1°F-0.5°C 16.4°F-8.7°C 54% 1.2 mph NW1.9 kmh NW 2.3 mph3.7 kmh 30.56 in1034.9 mb - 0.00 in0.0 mm 0.00 in0.0 mm
03:25 PM 31.6°F-0.2°C 16.9°F-8.4°C 54% 1.2 mph WNW1.9 kmh WNW 4.6 mph7.4 kmh 30.56 in1034.9 mb - 0.00 in0.0 mm 0.00 in0.0 mm
03:30 PM 31.6°F-0.2°C 16.0°F-8.9°C 52% 2.3 mph WNW3.7 kmh WNW 8.1 mph13.0 kmh 30.56 in1034.9 mb - 0.00 in0.0 mm 0.00 in0.0 mm
03:35 PM 31.5°F-0.3°C 15.4°F-9.2°C 51% 4.6 mph NW7.4 kmh NW 8.1 mph13.0 kmh 30.57 in1035.2 mb - 0.00 in0.0 mm 0.00 in0.0 mm
03:40 PM 31.4°F-0.3°C 15.3°F-9.3°C 51% 5.8 mph NNW9.3 kmh NNW 4.6 mph7.4 kmh 30.56 in1034.9 mb - 0.00 in0.0 mm 0.00 in0.0 mm
03:45 PM 31.1°F-0.5°C 13.7°F-10.2°C 48% 2.3 mph NW3.7 kmh NW 3.5 mph5.6 kmh 30.56 in1034.9 mb - 0.00 in0.0 mm 0.00 in0.0 mm
03:50 PM 31.2°F-0.4°C 14.7°F-9.6°C 50% 2.3 mph NW3.7 kmh NW 4.6 mph7.4 kmh 30.56 in1034.9 mb - 0.00 in0.0 mm 0.00 in0.0 mm
03:55 PM 31.3°F-0.4°C 14.3°F-9.8°C 49% 6.9 mph NW11.1 kmh NW 11.5 mph18.5 kmh 30.56 in1034.9 mb - 0.00 in0.0 mm 0.00 in0.0 mm
04:00 PM 31.4°F-0.3°C 15.3°F-9.3°C 51% Calm Calm 1.2 mph1.9 kmh 30.56 in1034.9 mb - 0.00 in0.0 mm 0.00 in0.0 mm
04:05 PM 31.8°F-0.1°C 15.3°F-9.3°C 50% 5.8 mph NW9.3 kmh NW 10.4 mph16.7 kmh 30.56 in1034.9 mb - 0.00 in0.0 mm 0.00 in0.0 mm
04:10 PM 32.0°F0.0°C 15.4°F-9.2°C 50% 5.8 mph NNW9.3 kmh NNW 11.5 mph18.5 kmh 30.55 in1034.5 mb - 0.00 in0.0 mm 0.00 in0.0 mm
04:15 PM 31.5°F-0.3°C 14.5°F-9.7°C 49% 8.1 mph N13.0 kmh N 9.2 mph14.8 kmh 30.54 in1034.2 mb - 0.00 in0.0 mm 0.00 in0.0 mm
04:20 PM 31.3°F-0.4°C 14.8°F-9.6°C 50% 4.6 mph NNE7.4 kmh NNE 10.4 mph16.7 kmh 30.54 in1034.2 mb - 0.00 in0.0 mm 0.00 in0.0 mm
04:25 PM 31.4°F-0.3°C 14.4°F-9.8°C 49% 8.1 mph N13.0 kmh N 11.5 mph18.5 kmh 30.54 in1034.2 mb - 0.00 in0.0 mm 0.00 in0.0 mm
04:30 PM 31.4°F-0.3°C 14.9°F-9.5°C 50% 4.6 mph NW7.4 kmh NW 8.1 mph13.0 kmh 30.55 in1034.5 mb - 0.00 in0.0 mm 0.00 in0.0 mm
04:35 PM 31.3°F-0.4°C 15.3°F-9.3°C 51% 3.5 mph NNW5.6 kmh NNW 4.6 mph7.4 kmh 30.55 in1034.5 mb - 0.00 in0.0 mm 0.00 in0.0 mm
04:40 PM 31.2°F-0.4°C 14.2°F-9.9°C 49% 4.6 mph NW7.4 kmh NW 5.8 mph9.3 kmh 30.55 in1034.5 mb - 0.00 in0.0 mm 0.00 in0.0 mm
04:45 PM 31.1°F-0.5°C 14.6°F-9.7°C 50% 3.5 mph NW5.6 kmh NW 5.8 mph9.3 kmh 30.55 in1034.5 mb - 0.00 in0.0 mm 0.00 in0.0 mm
04:50 PM 31.1°F-0.5°C 13.6°F-10.2°C 48% 2.3 mph N3.7 kmh N 8.1 mph13.0 kmh 30.55 in1034.5 mb - 0.00 in0.0 mm 0.00 in0.0 mm
04:55 PM 31.0°F-0.6°C 14.0°F-10.0°C 49% 4.6 mph NNW7.4 kmh NNW 4.6 mph7.4 kmh 30.55 in1034.5 mb - 0.00 in0.0 mm 0.00 in0.0 mm
05:00 PM 30.9°F-0.6°C 13.5°F-10.3°C 48% 3.5 mph NW5.6 kmh NW 9.2 mph14.8 kmh 30.54 in1034.2 mb - 0.00 in0.0 mm 0.00 in0.0 mm
05:05 PM 30.8°F-0.7°C 13.9°F-10.1°C 49% 5.8 mph NW9.3 kmh NW 11.5 mph18.5 kmh 30.54 in1034.2 mb - 0.00 in0.0 mm 0.00 in0.0 mm
05:10 PM 30.7°F-0.7°C 13.8°F-10.1°C 49% 5.8 mph NW9.3 kmh NW 8.1 mph13.0 kmh 30.54 in1034.2 mb - 0.00 in0.0 mm 0.00 in0.0 mm
05:15 PM 30.6°F-0.8°C 13.2°F-10.4°C 48% 5.8 mph N9.3 kmh N 11.5 mph18.5 kmh 30.54 in1034.2 mb - 0.00 in0.0 mm 0.00 in0.0 mm
05:20 PM 30.6°F-0.8°C 13.7°F-10.2°C 49% 4.6 mph NNW7.4 kmh NNW 6.9 mph11.1 kmh 30.54 in1034.2 mb - 0.00 in0.0 mm 0.00 in0.0 mm
05:25 PM 30.5°F-0.8°C 13.1°F-10.5°C 48% 4.6 mph NNE7.4 kmh NNE 5.8 mph9.3 kmh 30.54 in1034.2 mb - 0.00 in0.0 mm 0.00 in0.0 mm
05:30 PM 30.5°F-0.8°C 14.0°F-10.0°C 50% 2.3 mph N3.7 kmh N 4.6 mph7.4 kmh 30.54 in1034.2 mb - 0.00 in0.0 mm 0.00 in0.0 mm
05:35 PM 30.5°F-0.8°C 13.6°F-10.2°C 49% 1.2 mph NW1.9 kmh NW 2.3 mph3.7 kmh 30.54 in1034.2 mb - 0.00 in0.0 mm 0.00 in0.0 mm
05:40 PM 30.6°F-0.8°C 14.6°F-9.7°C 51% 1.2 mph N1.9 kmh N 2.3 mph3.7 kmh 30.54 in1034.2 mb - 0.00 in0.0 mm 0.00 in0.0 mm
05:45 PM 30.6°F-0.8°C 14.6°F-9.7°C 51% 1.2 mph NNW1.9 kmh NNW 2.3 mph3.7 kmh 30.54 in1034.2 mb - 0.00 in0.0 mm 0.00 in0.0 mm
05:50 PM 30.5°F-0.8°C 13.6°F-10.2°C 49% 2.3 mph NW3.7 kmh NW 2.3 mph3.7 kmh 30.55 in1034.5 mb - 0.00 in0.0 mm 0.00 in0.0 mm
05:55 PM 30.5°F-0.8°C 14.5°F-9.7°C 51% Calm Calm 1.2 mph1.9 kmh 30.54 in1034.2 mb - 0.00 in0.0 mm 0.00 in0.0 mm
06:00 PM 30.4°F-0.9°C 13.5°F-10.3°C 49% 4.6 mph NW7.4 kmh NW 3.5 mph5.6 kmh 30.55 in1034.5 mb - 0.00 in0.0 mm 0.00 in0.0 mm
06:05 PM 30.3°F-0.9°C 13.4°F-10.3°C 49% Calm Calm 2.3 mph3.7 kmh 30.55 in1034.5 mb - 0.00 in0.0 mm 0.00 in0.0 mm
06:10 PM 30.2°F-1.0°C 13.3°F-10.4°C 49% 1.2 mph NW1.9 kmh NW 4.6 mph7.4 kmh 30.55 in1034.5 mb - 0.00 in0.0 mm 0.00 in0.0 mm
06:15 PM 30.2°F-1.0°C 13.8°F-10.1°C 50% Calm Calm 2.3 mph3.7 kmh 30.55 in1034.5 mb - 0.00 in0.0 mm 0.00 in0.0 mm
06:20 PM 30.1°F-1.1°C 13.7°F-10.2°C 50% Calm Calm -- 30.55 in1034.5 mb - 0.00 in0.0 mm 0.00 in0.0 mm
06:25 PM 30.1°F-1.1°C 13.6°F-10.2°C 50% Calm Calm -- 30.56 in1034.9 mb - 0.00 in0.0 mm 0.00 in0.0 mm
06:30 PM 29.9°F-1.2°C 13.9°F-10.1°C 51% Calm Calm -- 30.56 in1034.9 mb - 0.00 in0.0 mm 0.00 in0.0 mm
06:35 PM 29.8°F-1.2°C 13.4°F-10.3°C 50% Calm Calm 2.3 mph3.7 kmh 30.56 in1034.9 mb - 0.00 in0.0 mm 0.00 in0.0 mm
06:40 PM 29.8°F-1.2°C 13.4°F-10.3°C 50% Calm Calm -- 30.57 in1035.2 mb - 0.00 in0.0 mm 0.00 in0.0 mm
06:45 PM 29.7°F-1.3°C 13.3°F-10.4°C 50% Calm Calm 2.3 mph3.7 kmh 30.57 in1035.2 mb - 0.00 in0.0 mm 0.00 in0.0 mm
06:50 PM 29.6°F-1.3°C 13.7°F-10.2°C 51% Calm Calm -- 30.57 in1035.2 mb - 0.00 in0.0 mm 0.00 in0.0 mm
06:55 PM 29.4°F-1.4°C 13.5°F-10.3°C 51% Calm Calm -- 30.57 in1035.2 mb - 0.00 in0.0 mm 0.00 in0.0 mm
07:00 PM 29.2°F-1.6°C 13.7°F-10.2°C 52% 1.2 mph WNW1.9 kmh WNW 2.3 mph3.7 kmh 30.57 in1035.2 mb - 0.00 in0.0 mm 0.00 in0.0 mm
07:05 PM 29.1°F-1.6°C 13.7°F-10.2°C 52% Calm Calm -- 30.57 in1035.2 mb - 0.00 in0.0 mm 0.00 in0.0 mm
07:10 PM 29.1°F-1.6°C 13.6°F-10.2°C 52% Calm Calm -- 30.57 in1035.2 mb - 0.00 in0.0 mm 0.00 in0.0 mm
07:15 PM 29.0°F-1.7°C 13.5°F-10.3°C 52% Calm Calm -- 30.58 in1035.6 mb - 0.00 in0.0 mm 0.00 in0.0 mm
07:20 PM 28.8°F-1.8°C 13.8°F-10.1°C 53% Calm Calm -- 30.59 in1035.9 mb - 0.00 in0.0 mm 0.00 in0.0 mm
07:25 PM 28.6°F-1.9°C 14.4°F-9.8°C 55% Calm Calm -- 30.59 in1035.9 mb - 0.00 in0.0 mm 0.00 in0.0 mm
07:30 PM 28.4°F-2.0°C 13.9°F-10.1°C 54% Calm Calm -- 30.59 in1035.9 mb - 0.00 in0.0 mm 0.00 in0.0 mm
07:35 PM 28.1°F-2.2°C 13.6°F-10.2°C 54% Calm Calm -- 30.59 in1035.9 mb - 0.00 in0.0 mm 0.00 in0.0 mm
07:40 PM 27.9°F-2.3°C 14.6°F-9.7°C 57% Calm Calm -- 30.59 in1035.9 mb - 0.00 in0.0 mm 0.00 in0.0 mm
07:45 PM 27.7°F-2.4°C 14.5°F-9.7°C 57% Calm Calm -- 30.59 in1035.9 mb - 0.00 in0.0 mm 0.00 in0.0 mm
07:50 PM 27.5°F-2.5°C 14.3°F-9.8°C 57% Calm Calm -- 30.59 in1035.9 mb - 0.00 in0.0 mm 0.00 in0.0 mm
07:55 PM 27.4°F-2.6°C 14.1°F-9.9°C 57% Calm Calm -- 30.59 in1035.9 mb - 0.00 in0.0 mm 0.00 in0.0 mm
08:00 PM 27.2°F-2.7°C 15.5°F-9.2°C 61% Calm Calm -- 30.59 in1035.9 mb - 0.00 in0.0 mm 0.00 in0.0 mm
08:05 PM 27.0°F-2.8°C 15.7°F-9.1°C 62% Calm Calm -- 30.59 in1035.9 mb - 0.00 in0.0 mm 0.00 in0.0 mm
08:10 PM 26.9°F-2.8°C 15.6°F-9.1°C 62% Calm Calm -- 30.59 in1035.9 mb - 0.00 in0.0 mm 0.00 in0.0 mm
08:15 PM 26.8°F-2.9°C 16.6°F-8.6°C 65% Calm Calm -- 30.59 in1035.9 mb - 0.00 in0.0 mm 0.00 in0.0 mm
08:20 PM 26.7°F-2.9°C 16.1°F-8.8°C 64% Calm Calm -- 30.58 in1035.6 mb - 0.00 in0.0 mm 0.00 in0.0 mm
08:25 PM 26.7°F-2.9°C 16.5°F-8.6°C 65% Calm Calm -- 30.58 in1035.6 mb - 0.00 in0.0 mm 0.00 in0.0 mm
08:30 PM 26.7°F-2.9°C 17.2°F-8.2°C 67% Calm Calm -- 30.58 in1035.6 mb - 0.00 in0.0 mm 0.00 in0.0 mm
08:35 PM 26.6°F-3.0°C 16.4°F-8.7°C 65% Calm Calm -- 30.58 in1035.6 mb - 0.00 in0.0 mm 0.00 in0.0 mm
08:40 PM 26.5°F-3.1°C 16.0°F-8.9°C 64% Calm Calm -- 30.57 in1035.2 mb - 0.00 in0.0 mm 0.00 in0.0 mm
08:45 PM 26.4°F-3.1°C 15.5°F-9.2°C 63% Calm Calm -- 30.58 in1035.6 mb - 0.00 in0.0 mm 0.00 in0.0 mm
08:50 PM 26.3°F-3.2°C 16.1°F-8.8°C 65% Calm Calm -- 30.57 in1035.2 mb - 0.00 in0.0 mm 0.00 in0.0 mm
08:55 PM 26.3°F-3.2°C 15.4°F-9.2°C 63% Calm Calm -- 30.58 in1035.6 mb - 0.00 in0.0 mm 0.00 in0.0 mm
09:00 PM 26.3°F-3.2°C 15.4°F-9.2°C 63% Calm Calm -- 30.58 in1035.6 mb - 0.00 in0.0 mm 0.00 in0.0 mm
09:05 PM 26.4°F-3.1°C 15.5°F-9.2°C 63% Calm Calm -- 30.58 in1035.6 mb - 0.00 in0.0 mm 0.00 in0.0 mm
09:10 PM 26.3°F-3.2°C 16.5°F-8.6°C 66% Calm Calm -- 30.58 in1035.6 mb - 0.00 in0.0 mm 0.00 in0.0 mm
09:15 PM 26.3°F-3.2°C 16.5°F-8.6°C 66% Calm Calm -- 30.58 in1035.6 mb - 0.00 in0.0 mm 0.00 in0.0 mm
09:20 PM 26.2°F-3.2°C 16.8°F-8.4°C 67% Calm Calm -- 30.58 in1035.6 mb - 0.00 in0.0 mm 0.00 in0.0 mm
09:25 PM 26.2°F-3.2°C 16.7°F-8.5°C 67% Calm Calm -- 30.57 in1035.2 mb - 0.00 in0.0 mm 0.00 in0.0 mm
09:30 PM 26.2°F-3.2°C 16.4°F-8.7°C 66% Calm Calm -- 30.57 in1035.2 mb - 0.00 in0.0 mm 0.00 in0.0 mm
09:35 PM 26.1°F-3.3°C 17.0°F-8.3°C 68% Calm Calm -- 30.58 in1035.6 mb - 0.00 in0.0 mm 0.00 in0.0 mm
09:40 PM 26.1°F-3.3°C 17.6°F-8.0°C 70% Calm Calm -- 30.58 in1035.6 mb - 0.00 in0.0 mm 0.00 in0.0 mm
09:45 PM 26.1°F-3.3°C 18.0°F-7.8°C 71% Calm Calm -- 30.57 in1035.2 mb - 0.00 in0.0 mm 0.00 in0.0 mm
09:50 PM 26.1°F-3.3°C 17.6°F-8.0°C 70% Calm Calm -- 30.57 in1035.2 mb - 0.00 in0.0 mm 0.00 in0.0 mm
09:55 PM 26.0°F-3.3°C 17.6°F-8.0°C 70% Calm Calm -- 30.57 in1035.2 mb - 0.00 in0.0 mm 0.00 in0.0 mm
10:00 PM 26.0°F-3.3°C 17.2°F-8.2°C 69% Calm Calm -- 30.57 in1035.2 mb - 0.00 in0.0 mm 0.00 in0.0 mm
10:05 PM 25.9°F-3.4°C 17.5°F-8.1°C 70% Calm Calm -- 30.57 in1035.2 mb - 0.00 in0.0 mm 0.00 in0.0 mm
10:10 PM 25.8°F-3.4°C 17.0°F-8.3°C 69% Calm Calm -- 30.57 in1035.2 mb - 0.00 in0.0 mm 0.00 in0.0 mm
10:15 PM 25.7°F-3.5°C 16.6°F-8.6°C 68% Calm Calm -- 30.57 in1035.2 mb - 0.00 in0.0 mm 0.00 in0.0 mm
10:20 PM 25.7°F-3.5°C 16.6°F-8.6°C 68% Calm Calm -- 30.57 in1035.2 mb - 0.00 in0.0 mm 0.00 in0.0 mm
10:25 PM 25.7°F-3.5°C 16.9°F-8.4°C 69% Calm Calm -- 30.57 in1035.2 mb - 0.00 in0.0 mm 0.00 in0.0 mm
10:30 PM 25.7°F-3.5°C 16.9°F-8.4°C 69% Calm Calm -- 30.57 in1035.2 mb - 0.00 in0.0 mm 0.00 in0.0 mm
10:35 PM 25.6°F-3.6°C 16.9°F-8.4°C 69% Calm Calm -- 30.57 in1035.2 mb - 0.00 in0.0 mm 0.00 in0.0 mm
10:40 PM 25.6°F-3.6°C 17.2°F-8.2°C 70% Calm Calm -- 30.57 in1035.2 mb - 0.00 in0.0 mm 0.00 in0.0 mm
10:45 PM 25.5°F-3.6°C 17.1°F-8.3°C 70% Calm Calm -- 30.57 in1035.2 mb - 0.00 in0.0 mm 0.00 in0.0 mm
10:50 PM 25.4°F-3.7°C 17.6°F-8.0°C 72% Calm Calm -- 30.57 in1035.2 mb - 0.00 in0.0 mm 0.00 in0.0 mm
10:55 PM 25.5°F-3.6°C 18.4°F-7.6°C 74% Calm Calm -- 30.56 in1034.9 mb - 0.00 in0.0 mm 0.00 in0.0 mm
11:00 PM 25.6°F-3.6°C 18.7°F-7.4°C 75% Calm Calm -- 30.56 in1034.9 mb - 0.00 in0.0 mm 0.00 in0.0 mm
11:05 PM 25.6°F-3.6°C 18.8°F-7.3°C 75% Calm Calm -- 30.56 in1034.9 mb - 0.00 in0.0 mm 0.00 in0.0 mm
11:10 PM 25.6°F-3.6°C 18.5°F-7.5°C 74% Calm Calm -- 30.56 in1034.9 mb - 0.00 in0.0 mm 0.00 in0.0 mm
11:15 PM 25.6°F-3.6°C 18.5°F-7.5°C 74% Calm Calm -- 30.56 in1034.9 mb - 0.00 in0.0 mm 0.00 in0.0 mm
11:20 PM 25.7°F-3.5°C 18.6°F-7.4°C 74% Calm Calm -- 30.56 in1034.9 mb - 0.00 in0.0 mm 0.00 in0.0 mm
11:25 PM 25.7°F-3.5°C 18.5°F-7.5°C 74% Calm Calm -- 30.56 in1034.9 mb - 0.00 in0.0 mm 0.00 in0.0 mm
11:35 PM 25.7°F-3.5°C 19.2°F-7.1°C 76% Calm Calm -- 30.55 in1034.5 mb - 0.00 in0.0 mm 0.00 in0.0 mm
11:40 PM 25.7°F-3.5°C 19.2°F-7.1°C 76% Calm Calm -- 30.56 in1034.9 mb - 0.00 in0.0 mm 0.00 in0.0 mm
11:45 PM 25.7°F-3.5°C 18.9°F-7.3°C 75% Calm Calm -- 30.56 in1034.9 mb - 0.00 in0.0 mm 0.00 in0.0 mm
11:50 PM 25.7°F-3.5°C 18.9°F-7.3°C 75% Calm Calm -- 30.56 in1034.9 mb - 0.00 in0.0 mm 0.00 in0.0 mm
11:55 PM 25.7°F-3.5°C 18.9°F-7.3°C 75% Calm Calm -- 30.56 in1034.9 mb - 0.00 in0.0 mm 0.00 in0.0 mm